sensor_id;sensor_type;location;lat;lon;timestamp;P1;durP1;ratioP1;P2;durP2;ratioP2
17566;SDS011;8901;52.088;5.084;2022-07-21T00:01:21;15.00;;;13.70;;
17566;SDS011;8901;52.088;5.084;2022-07-21T00:03:48;14.20;;;13.10;;
17566;SDS011;8901;52.088;5.084;2022-07-21T00:06:14;14.15;;;12.90;;
17566;SDS011;8901;52.088;5.084;2022-07-21T00:08:41;15.15;;;14.05;;
17566;SDS011;8901;52.088;5.084;2022-07-21T00:11:09;14.00;;;13.00;;
17566;SDS011;8901;52.088;5.084;2022-07-21T00:13:35;14.57;;;13.30;;
17566;SDS011;8901;52.088;5.084;2022-07-21T00:16:04;13.05;;;12.00;;
17566;SDS011;8901;52.088;5.084;2022-07-21T00:18:31;12.23;;;11.23;;
17566;SDS011;8901;52.088;5.084;2022-07-21T00:20:58;12.27;;;11.27;;
17566;SDS011;8901;52.088;5.084;2022-07-21T00:23:26;11.68;;;10.68;;
17566;SDS011;8901;52.088;5.084;2022-07-21T00:25:53;10.60;;;9.65;;
17566;SDS011;8901;52.088;5.084;2022-07-21T00:28:23;12.48;;;11.38;;
17566;SDS011;8901;52.088;5.084;2022-07-21T00:30:49;12.60;;;11.60;;
17566;SDS011;8901;52.088;5.084;2022-07-21T00:33:18;13.00;;;12.00;;
17566;SDS011;8901;52.088;5.084;2022-07-21T00:35:44;12.88;;;11.88;;
17566;SDS011;8901;52.088;5.084;2022-07-21T00:38:11;13.43;;;12.35;;
17566;SDS011;8901;52.088;5.084;2022-07-21T00:40:39;13.05;;;12.13;;
17566;SDS011;8901;52.088;5.084;2022-07-21T00:43:08;13.90;;;12.73;;
17566;SDS011;8901;52.088;5.084;2022-07-21T00:45:35;14.18;;;13.07;;
17566;SDS011;8901;52.088;5.084;2022-07-21T00:48:02;14.02;;;12.73;;
17566;SDS011;8901;52.088;5.084;2022-07-21T00:50:30;14.55;;;13.50;;
17566;SDS011;8901;52.088;5.084;2022-07-21T00:52:58;12.82;;;11.70;;
17566;SDS011;8901;52.088;5.084;2022-07-21T00:55:25;13.57;;;12.68;;
17566;SDS011;8901;52.088;5.084;2022-07-21T00:57:52;12.60;;;11.70;;
17566;SDS011;8901;52.088;5.084;2022-07-21T01:00:20;13.43;;;12.48;;
17566;SDS011;8901;52.088;5.084;2022-07-21T01:02:48;13.13;;;12.02;;
17566;SDS011;8901;52.088;5.084;2022-07-21T01:05:16;11.75;;;10.88;;
17566;SDS011;8901;52.088;5.084;2022-07-21T01:07:46;12.82;;;11.77;;
17566;SDS011;8901;52.088;5.084;2022-07-21T01:10:14;12.90;;;11.90;;
17566;SDS011;8901;52.088;5.084;2022-07-21T01:12:42;13.48;;;12.10;;
17566;SDS011;8901;52.088;5.084;2022-07-21T01:15:09;12.20;;;11.30;;
17566;SDS011;8901;52.088;5.084;2022-07-21T01:17:37;13.18;;;12.00;;
17566;SDS011;8901;52.088;5.084;2022-07-21T01:20:05;13.15;;;12.15;;
17566;SDS011;8901;52.088;5.084;2022-07-21T01:22:36;13.18;;;12.10;;
17566;SDS011;8901;52.088;5.084;2022-07-21T01:25:04;13.82;;;12.77;;
17566;SDS011;8901;52.088;5.084;2022-07-21T01:27:32;13.00;;;12.00;;
17566;SDS011;8901;52.088;5.084;2022-07-21T01:29:59;13.73;;;12.48;;
17566;SDS011;8901;52.088;5.084;2022-07-21T01:32:26;14.55;;;13.38;;
17566;SDS011;8901;52.088;5.084;2022-07-21T01:34:53;14.07;;;12.88;;
17566;SDS011;8901;52.088;5.084;2022-07-21T01:37:20;13.65;;;12.63;;
17566;SDS011;8901;52.088;5.084;2022-07-21T01:39:49;14.50;;;13.40;;
17566;SDS011;8901;52.088;5.084;2022-07-21T01:42:34;14.93;;;13.63;;
17566;SDS011;8901;52.088;5.084;2022-07-21T01:45:01;14.55;;;13.45;;
17566;SDS011;8901;52.088;5.084;2022-07-21T01:47:29;13.90;;;12.48;;
17566;SDS011;8901;52.088;5.084;2022-07-21T01:49:56;13.90;;;12.80;;
17566;SDS011;8901;52.088;5.084;2022-07-21T01:52:23;14.25;;;13.05;;
17566;SDS011;8901;52.088;5.084;2022-07-21T01:54:51;15.18;;;14.07;;
17566;SDS011;8901;52.088;5.084;2022-07-21T01:57:18;14.80;;;13.55;;
17566;SDS011;8901;52.088;5.084;2022-07-21T01:59:45;14.93;;;13.65;;
17566;SDS011;8901;52.088;5.084;2022-07-21T02:02:12;13.75;;;12.65;;
17566;SDS011;8901;52.088;5.084;2022-07-21T02:04:38;15.85;;;14.45;;
17566;SDS011;8901;52.088;5.084;2022-07-21T02:07:05;15.73;;;14.45;;
17566;SDS011;8901;52.088;5.084;2022-07-21T02:09:32;15.82;;;14.43;;
17566;SDS011;8901;52.088;5.084;2022-07-21T02:12:00;16.25;;;14.85;;
17566;SDS011;8901;52.088;5.084;2022-07-21T02:14:27;15.10;;;13.90;;
17566;SDS011;8901;52.088;5.084;2022-07-21T02:16:54;15.60;;;14.40;;
17566;SDS011;8901;52.088;5.084;2022-07-21T02:19:23;16.48;;;15.10;;
17566;SDS011;8901;52.088;5.084;2022-07-21T02:21:50;16.33;;;14.93;;
17566;SDS011;8901;52.088;5.084;2022-07-21T02:24:18;13.98;;;12.77;;
17566;SDS011;8901;52.088;5.084;2022-07-21T02:26:45;16.63;;;15.18;;
17566;SDS011;8901;52.088;5.084;2022-07-21T02:29:14;16.50;;;15.10;;
17566;SDS011;8901;52.088;5.084;2022-07-21T02:31:41;17.77;;;16.27;;
17566;SDS011;8901;52.088;5.084;2022-07-21T02:34:08;17.00;;;15.50;;
17566;SDS011;8901;52.088;5.084;2022-07-21T02:36:35;17.52;;;15.95;;
17566;SDS011;8901;52.088;5.084;2022-07-21T02:39:02;18.50;;;16.73;;
17566;SDS011;8901;52.088;5.084;2022-07-21T02:41:29;15.38;;;14.07;;
17566;SDS011;8901;52.088;5.084;2022-07-21T02:43:59;17.83;;;16.10;;
17566;SDS011;8901;52.088;5.084;2022-07-21T02:46:27;16.48;;;15.07;;
17566;SDS011;8901;52.088;5.084;2022-07-21T02:48:54;14.05;;;12.75;;
17566;SDS011;8901;52.088;5.084;2022-07-21T02:51:21;18.63;;;17.00;;
17566;SDS011;8901;52.088;5.084;2022-07-21T02:53:48;18.20;;;16.60;;
17566;SDS011;8901;52.088;5.084;2022-07-21T02:56:14;16.23;;;14.85;;
17566;SDS011;8901;52.088;5.084;2022-07-21T02:58:43;17.65;;;15.65;;
17566;SDS011;8901;52.088;5.084;2022-07-21T03:01:10;18.35;;;16.75;;
17566;SDS011;8901;52.088;5.084;2022-07-21T03:03:38;19.05;;;17.20;;
17566;SDS011;8901;52.088;5.084;2022-07-21T03:06:07;16.73;;;15.20;;
17566;SDS011;8901;52.088;5.084;2022-07-21T03:08:34;18.10;;;16.40;;
17566;SDS011;8901;52.088;5.084;2022-07-21T03:11:02;18.38;;;16.65;;
17566;SDS011;8901;52.088;5.084;2022-07-21T03:13:30;18.17;;;16.38;;
17566;SDS011;8901;52.088;5.084;2022-07-21T03:15:57;17.48;;;15.73;;
17566;SDS011;8901;52.088;5.084;2022-07-21T03:18:24;19.00;;;17.23;;
17566;SDS011;8901;52.088;5.084;2022-07-21T03:20:52;20.33;;;18.38;;
17566;SDS011;8901;52.088;5.084;2022-07-21T03:23:19;17.52;;;16.13;;
17566;SDS011;8901;52.088;5.084;2022-07-21T03:25:46;19.50;;;17.77;;
17566;SDS011;8901;52.088;5.084;2022-07-21T03:28:13;19.38;;;17.55;;
17566;SDS011;8901;52.088;5.084;2022-07-21T03:30:40;20.05;;;17.95;;
17566;SDS011;8901;52.088;5.084;2022-07-21T03:33:06;18.77;;;17.10;;
17566;SDS011;8901;52.088;5.084;2022-07-21T03:35:33;18.75;;;16.90;;
17566;SDS011;8901;52.088;5.084;2022-07-21T03:38:02;18.40;;;16.70;;
17566;SDS011;8901;52.088;5.084;2022-07-21T03:40:45;18.95;;;17.15;;
17566;SDS011;8901;52.088;5.084;2022-07-21T03:43:12;16.13;;;14.52;;
17566;SDS011;8901;52.088;5.084;2022-07-21T03:45:39;19.77;;;17.77;;
17566;SDS011;8901;52.088;5.084;2022-07-21T03:48:07;16.80;;;15.23;;
17566;SDS011;8901;52.088;5.084;2022-07-21T03:50:35;19.58;;;17.58;;
17566;SDS011;8901;52.088;5.084;2022-07-21T03:53:05;18.40;;;16.70;;
17566;SDS011;8901;52.088;5.084;2022-07-21T03:55:32;19.08;;;17.27;;
17566;SDS011;8901;52.088;5.084;2022-07-21T03:58:00;19.35;;;17.52;;
17566;SDS011;8901;52.088;5.084;2022-07-21T04:00:30;18.23;;;16.52;;
17566;SDS011;8901;52.088;5.084;2022-07-21T04:02:58;18.70;;;16.95;;
17566;SDS011;8901;52.088;5.084;2022-07-21T04:05:26;18.67;;;16.88;;
17566;SDS011;8901;52.088;5.084;2022-07-21T04:07:53;18.85;;;16.95;;
17566;SDS011;8901;52.088;5.084;2022-07-21T04:10:24;18.05;;;16.50;;
17566;SDS011;8901;52.088;5.084;2022-07-21T04:12:54;19.13;;;17.25;;
17566;SDS011;8901;52.088;5.084;2022-07-21T04:15:27;18.17;;;16.38;;
17566;SDS011;8901;52.088;5.084;2022-07-21T04:17:55;19.58;;;17.70;;
17566;SDS011;8901;52.088;5.084;2022-07-21T04:20:22;18.80;;;17.10;;
17566;SDS011;8901;52.088;5.084;2022-07-21T04:22:50;19.48;;;17.65;;
17566;SDS011;8901;52.088;5.084;2022-07-21T04:25:18;16.70;;;15.10;;
17566;SDS011;8901;52.088;5.084;2022-07-21T04:27:47;18.02;;;16.23;;
17566;SDS011;8901;52.088;5.084;2022-07-21T04:30:15;19.15;;;17.30;;
17566;SDS011;8901;52.088;5.084;2022-07-21T04:32:44;18.83;;;16.92;;
17566;SDS011;8901;52.088;5.084;2022-07-21T04:35:11;20.52;;;18.40;;
17566;SDS011;8901;52.088;5.084;2022-07-21T04:37:39;17.65;;;15.85;;
17566;SDS011;8901;52.088;5.084;2022-07-21T04:40:07;22.02;;;18.13;;
17566;SDS011;8901;52.088;5.084;2022-07-21T04:42:36;19.60;;;17.70;;
17566;SDS011;8901;52.088;5.084;2022-07-21T04:45:06;19.40;;;17.50;;
17566;SDS011;8901;52.088;5.084;2022-07-21T04:47:41;20.90;;;17.73;;
17566;SDS011;8901;52.088;5.084;2022-07-21T04:50:08;19.25;;;17.13;;
17566;SDS011;8901;52.088;5.084;2022-07-21T04:52:36;19.45;;;16.65;;
17566;SDS011;8901;52.088;5.084;2022-07-21T04:55:03;21.30;;;19.13;;
17566;SDS011;8901;52.088;5.084;2022-07-21T04:57:30;20.65;;;17.95;;
17566;SDS011;8901;52.088;5.084;2022-07-21T04:59:57;19.75;;;17.65;;
17566;SDS011;8901;52.088;5.084;2022-07-21T05:02:28;20.50;;;18.40;;
17566;SDS011;8901;52.088;5.084;2022-07-21T05:04:55;20.23;;;15.63;;
17566;SDS011;8901;52.088;5.084;2022-07-21T05:07:22;20.88;;;18.77;;
17566;SDS011;8901;52.088;5.084;2022-07-21T05:09:49;19.80;;;17.90;;
17566;SDS011;8901;52.088;5.084;2022-07-21T05:12:17;20.20;;;18.00;;
17566;SDS011;8901;52.088;5.084;2022-07-21T05:14:44;20.75;;;18.35;;
17566;SDS011;8901;52.088;5.084;2022-07-21T05:17:11;18.08;;;16.20;;
17566;SDS011;8901;52.088;5.084;2022-07-21T05:22:41;23.33;;;16.67;;
17566;SDS011;8901;52.088;5.084;2022-07-21T05:25:08;19.73;;;16.05;;
17566;SDS011;8901;52.088;5.084;2022-07-21T05:27:35;16.35;;;14.70;;
17566;SDS011;8901;52.088;5.084;2022-07-21T05:30:02;18.45;;;16.55;;
17566;SDS011;8901;52.088;5.084;2022-07-21T05:32:30;19.88;;;16.33;;
17566;SDS011;8901;52.088;5.084;2022-07-21T05:34:57;18.13;;;14.80;;
17566;SDS011;8901;52.088;5.084;2022-07-21T05:37:25;17.15;;;15.15;;
17566;SDS011;8901;52.088;5.084;2022-07-21T05:39:53;17.88;;;15.48;;
17566;SDS011;8901;52.088;5.084;2022-07-21T05:42:19;16.60;;;14.93;;
17566;SDS011;8901;52.088;5.084;2022-07-21T05:44:46;17.33;;;14.95;;
17566;SDS011;8901;52.088;5.084;2022-07-21T05:47:13;17.45;;;14.68;;
17566;SDS011;8901;52.088;5.084;2022-07-21T05:49:40;19.83;;;16.05;;
17566;SDS011;8901;52.088;5.084;2022-07-21T05:52:08;17.77;;;15.30;;
17566;SDS011;8901;52.088;5.084;2022-07-21T05:54:37;21.80;;;17.08;;
17566;SDS011;8901;52.088;5.084;2022-07-21T05:57:03;18.30;;;16.38;;
17566;SDS011;8901;52.088;5.084;2022-07-21T05:59:30;15.98;;;13.90;;
17566;SDS011;8901;52.088;5.084;2022-07-21T06:01:58;19.90;;;15.00;;
17566;SDS011;8901;52.088;5.084;2022-07-21T06:04:25;18.25;;;13.55;;
17566;SDS011;8901;52.088;5.084;2022-07-21T06:09:30;22.10;;;17.33;;
17566;SDS011;8901;52.088;5.084;2022-07-21T06:11:58;21.63;;;18.20;;
17566;SDS011;8901;52.088;5.084;2022-07-21T06:14:25;23.23;;;18.08;;
17566;SDS011;8901;52.088;5.084;2022-07-21T06:16:53;21.50;;;16.23;;
17566;SDS011;8901;52.088;5.084;2022-07-21T06:19:21;18.50;;;15.55;;
17566;SDS011;8901;52.088;5.084;2022-07-21T06:21:48;24.42;;;18.17;;
17566;SDS011;8901;52.088;5.084;2022-07-21T06:24:15;21.55;;;17.67;;
17566;SDS011;8901;52.088;5.084;2022-07-21T06:26:44;23.88;;;18.48;;
17566;SDS011;8901;52.088;5.084;2022-07-21T06:29:12;25.67;;;19.10;;
17566;SDS011;8901;52.088;5.084;2022-07-21T06:31:39;25.02;;;20.88;;
17566;SDS011;8901;52.088;5.084;2022-07-21T06:34:06;26.65;;;22.70;;
17566;SDS011;8901;52.088;5.084;2022-07-21T06:36:35;26.85;;;21.55;;
17566;SDS011;8901;52.088;5.084;2022-07-21T06:39:02;26.90;;;20.25;;
17566;SDS011;8901;52.088;5.084;2022-07-21T06:41:29;24.55;;;19.55;;
17566;SDS011;8901;52.088;5.084;2022-07-21T06:43:56;27.83;;;22.90;;
17566;SDS011;8901;52.088;5.084;2022-07-21T06:46:24;27.25;;;20.92;;
17566;SDS011;8901;52.088;5.084;2022-07-21T06:48:51;23.63;;;19.50;;
17566;SDS011;8901;52.088;5.084;2022-07-21T06:51:18;24.90;;;19.63;;
17566;SDS011;8901;52.088;5.084;2022-07-21T06:53:45;27.10;;;20.02;;
17566;SDS011;8901;52.088;5.084;2022-07-21T06:56:12;24.60;;;21.08;;
17566;SDS011;8901;52.088;5.084;2022-07-21T06:58:39;25.63;;;19.42;;
17566;SDS011;8901;52.088;5.084;2022-07-21T07:01:06;30.38;;;22.50;;
17566;SDS011;8901;52.088;5.084;2022-07-21T07:03:34;24.38;;;21.00;;
17566;SDS011;8901;52.088;5.084;2022-07-21T07:06:02;32.20;;;23.83;;
17566;SDS011;8901;52.088;5.084;2022-07-21T07:08:31;26.80;;;21.77;;
17566;SDS011;8901;52.088;5.084;2022-07-21T07:10:58;31.40;;;22.13;;
17566;SDS011;8901;52.088;5.084;2022-07-21T07:13:25;33.58;;;23.98;;
17566;SDS011;8901;52.088;5.084;2022-07-21T07:15:52;27.02;;;21.33;;
17566;SDS011;8901;52.088;5.084;2022-07-21T07:18:19;27.52;;;23.48;;
17566;SDS011;8901;52.088;5.084;2022-07-21T07:20:48;32.53;;;24.10;;
17566;SDS011;8901;52.088;5.084;2022-07-21T07:23:16;34.95;;;23.35;;
17566;SDS011;8901;52.088;5.084;2022-07-21T07:25:43;32.20;;;23.60;;
17566;SDS011;8901;52.088;5.084;2022-07-21T07:28:10;31.23;;;24.70;;
17566;SDS011;8901;52.088;5.084;2022-07-21T07:30:37;30.77;;;23.85;;
17566;SDS011;8901;52.088;5.084;2022-07-21T07:33:05;37.55;;;28.27;;
17566;SDS011;8901;52.088;5.084;2022-07-21T07:35:32;31.00;;;26.23;;
17566;SDS011;8901;52.088;5.084;2022-07-21T07:38:00;33.33;;;25.33;;
17566;SDS011;8901;52.088;5.084;2022-07-21T07:40:27;36.40;;;24.65;;
17566;SDS011;8901;52.088;5.084;2022-07-21T07:42:54;34.30;;;24.92;;
17566;SDS011;8901;52.088;5.084;2022-07-21T07:45:21;36.65;;;23.80;;
17566;SDS011;8901;52.088;5.084;2022-07-21T07:47:48;28.42;;;22.90;;
17566;SDS011;8901;52.088;5.084;2022-07-21T07:50:15;34.13;;;24.10;;
17566;SDS011;8901;52.088;5.084;2022-07-21T07:52:43;33.85;;;23.65;;
17566;SDS011;8901;52.088;5.084;2022-07-21T07:55:12;31.48;;;23.88;;
17566;SDS011;8901;52.088;5.084;2022-07-21T07:57:39;32.85;;;23.48;;
17566;SDS011;8901;52.088;5.084;2022-07-21T08:00:10;33.13;;;23.50;;
17566;SDS011;8901;52.088;5.084;2022-07-21T08:02:39;33.97;;;22.45;;
17566;SDS011;8901;52.088;5.084;2022-07-21T08:05:06;28.85;;;20.40;;
17566;SDS011;8901;52.088;5.084;2022-07-21T08:07:34;28.00;;;19.85;;
17566;SDS011;8901;52.088;5.084;2022-07-21T08:10:03;25.65;;;19.50;;
17566;SDS011;8901;52.088;5.084;2022-07-21T08:12:32;21.27;;;17.58;;
17566;SDS011;8901;52.088;5.084;2022-07-21T08:14:59;24.05;;;17.35;;
17566;SDS011;8901;52.088;5.084;2022-07-21T08:17:26;17.13;;;14.50;;
17566;SDS011;8901;52.088;5.084;2022-07-21T08:19:52;21.10;;;15.05;;
17566;SDS011;8901;52.088;5.084;2022-07-21T08:22:19;18.35;;;14.63;;
17566;SDS011;8901;52.088;5.084;2022-07-21T08:24:46;18.23;;;13.02;;
17566;SDS011;8901;52.088;5.084;2022-07-21T08:27:13;15.07;;;11.77;;
17566;SDS011;8901;52.088;5.084;2022-07-21T08:29:42;16.05;;;11.65;;
17566;SDS011;8901;52.088;5.084;2022-07-21T08:32:08;18.83;;;12.90;;
17566;SDS011;8901;52.088;5.084;2022-07-21T08:34:36;16.50;;;12.02;;
17566;SDS011;8901;52.088;5.084;2022-07-21T08:37:02;12.07;;;10.02;;
17566;SDS011;8901;52.088;5.084;2022-07-21T08:39:32;15.43;;;8.70;;
17566;SDS011;8901;52.088;5.084;2022-07-21T08:41:59;7.85;;;5.55;;
17566;SDS011;8901;52.088;5.084;2022-07-21T08:44:27;9.15;;;6.13;;
17566;SDS011;8901;52.088;5.084;2022-07-21T08:46:55;7.97;;;5.80;;
17566;SDS011;8901;52.088;5.084;2022-07-21T08:49:23;6.47;;;4.40;;
17566;SDS011;8901;52.088;5.084;2022-07-21T08:51:50;9.93;;;5.85;;
17566;SDS011;8901;52.088;5.084;2022-07-21T08:54:19;7.57;;;4.80;;
17566;SDS011;8901;52.088;5.084;2022-07-21T08:56:46;7.25;;;5.20;;
17566;SDS011;8901;52.088;5.084;2022-07-21T08:59:13;7.82;;;4.82;;
17566;SDS011;8901;52.088;5.084;2022-07-21T09:01:40;6.32;;;5.25;;
17566;SDS011;8901;52.088;5.084;2022-07-21T09:04:24;8.55;;;5.45;;
17566;SDS011;8901;52.088;5.084;2022-07-21T09:06:59;5.95;;;5.03;;
17566;SDS011;8901;52.088;5.084;2022-07-21T09:09:29;7.38;;;5.07;;
17566;SDS011;8901;52.088;5.084;2022-07-21T09:12:00;6.65;;;4.90;;
17566;SDS011;8901;52.088;5.084;2022-07-21T09:14:42;7.63;;;5.25;;
17566;SDS011;8901;52.088;5.084;2022-07-21T09:17:10;5.90;;;4.90;;
17566;SDS011;8901;52.088;5.084;2022-07-21T09:22:14;6.95;;;4.53;;
17566;SDS011;8901;52.088;5.084;2022-07-21T09:24:47;6.30;;;4.75;;
17566;SDS011;8901;52.088;5.084;2022-07-21T09:27:16;5.97;;;4.80;;
17566;SDS011;8901;52.088;5.084;2022-07-21T09:29:44;5.63;;;4.47;;
17566;SDS011;8901;52.088;5.084;2022-07-21T09:32:22;6.38;;;4.80;;
17566;SDS011;8901;52.088;5.084;2022-07-21T09:34:52;8.02;;;5.38;;
17566;SDS011;8901;52.088;5.084;2022-07-21T09:37:21;6.45;;;4.90;;
17566;SDS011;8901;52.088;5.084;2022-07-21T09:39:52;5.43;;;4.65;;
17566;SDS011;8901;52.088;5.084;2022-07-21T09:42:28;4.72;;;4.18;;
17566;SDS011;8901;52.088;5.084;2022-07-21T09:44:57;7.30;;;4.50;;
17566;SDS011;8901;52.088;5.084;2022-07-21T09:47:26;4.95;;;3.92;;
17566;SDS011;8901;52.088;5.084;2022-07-21T09:49:56;5.85;;;4.75;;
17566;SDS011;8901;52.088;5.084;2022-07-21T09:52:29;6.07;;;5.20;;
17566;SDS011;8901;52.088;5.084;2022-07-21T09:55:04;9.23;;;5.35;;
17566;SDS011;8901;52.088;5.084;2022-07-21T09:57:33;25.63;;;8.63;;
17566;SDS011;8901;52.088;5.084;2022-07-21T09:59:59;8.90;;;6.68;;
17566;SDS011;8901;52.088;5.084;2022-07-21T10:02:30;6.20;;;5.35;;
17566;SDS011;8901;52.088;5.084;2022-07-21T10:07:31;15.73;;;11.00;;
17566;SDS011;8901;52.088;5.084;2022-07-21T10:12:35;8.15;;;5.97;;
17566;SDS011;8901;52.088;5.084;2022-07-21T10:15:03;6.55;;;5.88;;
17566;SDS011;8901;52.088;5.084;2022-07-21T10:17:37;8.43;;;6.13;;
17566;SDS011;8901;52.088;5.084;2022-07-21T10:20:08;9.13;;;5.93;;
17566;SDS011;8901;52.088;5.084;2022-07-21T10:22:42;8.48;;;5.90;;
17566;SDS011;8901;52.088;5.084;2022-07-21T10:25:18;9.40;;;5.18;;
17566;SDS011;8901;52.088;5.084;2022-07-21T10:30:46;9.77;;;5.80;;
17566;SDS011;8901;52.088;5.084;2022-07-21T10:33:15;7.20;;;5.07;;
17566;SDS011;8901;52.088;5.084;2022-07-21T10:35:45;8.80;;;6.28;;
17566;SDS011;8901;52.088;5.084;2022-07-21T10:38:26;12.13;;;7.53;;
17566;SDS011;8901;52.088;5.084;2022-07-21T10:40:54;10.23;;;6.93;;
17566;SDS011;8901;52.088;5.084;2022-07-21T10:43:38;8.27;;;5.97;;
17566;SDS011;8901;52.088;5.084;2022-07-21T10:49:05;9.15;;;6.43;;
17566;SDS011;8901;52.088;5.084;2022-07-21T10:51:36;7.95;;;6.18;;
17566;SDS011;8901;52.088;5.084;2022-07-21T10:54:17;9.50;;;5.93;;
17566;SDS011;8901;52.088;5.084;2022-07-21T10:56:48;9.73;;;5.60;;
17566;SDS011;8901;52.088;5.084;2022-07-21T10:59:15;9.68;;;5.80;;
17566;SDS011;8901;52.088;5.084;2022-07-21T11:01:42;9.18;;;6.07;;
17566;SDS011;8901;52.088;5.084;2022-07-21T11:04:09;7.18;;;4.93;;
17566;SDS011;8901;52.088;5.084;2022-07-21T11:06:38;6.28;;;4.45;;
17566;SDS011;8901;52.088;5.084;2022-07-21T11:09:07;7.55;;;4.53;;
17566;SDS011;8901;52.088;5.084;2022-07-21T11:11:36;6.22;;;5.05;;
17566;SDS011;8901;52.088;5.084;2022-07-21T11:14:07;5.65;;;4.50;;
17566;SDS011;8901;52.088;5.084;2022-07-21T11:19:31;5.80;;;4.47;;
17566;SDS011;8901;52.088;5.084;2022-07-21T11:22:02;6.53;;;5.05;;
17566;SDS011;8901;52.088;5.084;2022-07-21T11:24:31;5.85;;;4.57;;
17566;SDS011;8901;52.088;5.084;2022-07-21T11:27:00;7.65;;;4.70;;
17566;SDS011;8901;52.088;5.084;2022-07-21T11:29:29;8.27;;;3.97;;
17566;SDS011;8901;52.088;5.084;2022-07-21T11:31:57;6.25;;;4.05;;
17566;SDS011;8901;52.088;5.084;2022-07-21T11:34:36;6.07;;;4.40;;
17566;SDS011;8901;52.088;5.084;2022-07-21T11:37:08;4.90;;;3.83;;
17566;SDS011;8901;52.088;5.084;2022-07-21T11:39:37;8.18;;;4.47;;
17566;SDS011;8901;52.088;5.084;2022-07-21T11:42:04;7.13;;;3.65;;
17566;SDS011;8901;52.088;5.084;2022-07-21T11:44:33;5.97;;;3.92;;
17566;SDS011;8901;52.088;5.084;2022-07-21T11:47:01;4.40;;;3.50;;
17566;SDS011;8901;52.088;5.084;2022-07-21T11:49:30;4.05;;;3.53;;
17566;SDS011;8901;52.088;5.084;2022-07-21T11:51:58;5.43;;;3.80;;
17566;SDS011;8901;52.088;5.084;2022-07-21T11:54:34;5.45;;;3.60;;
17566;SDS011;8901;52.088;5.084;2022-07-21T11:57:04;5.85;;;3.60;;
17566;SDS011;8901;52.088;5.084;2022-07-21T11:59:32;4.80;;;3.85;;
17566;SDS011;8901;52.088;5.084;2022-07-21T12:02:02;3.50;;;3.20;;
17566;SDS011;8901;52.088;5.084;2022-07-21T12:04:41;5.97;;;3.50;;
17566;SDS011;8901;52.088;5.084;2022-07-21T12:07:14;3.50;;;3.20;;
17566;SDS011;8901;52.088;5.084;2022-07-21T12:09:44;4.22;;;3.20;;
17566;SDS011;8901;52.088;5.084;2022-07-21T12:12:13;5.25;;;2.83;;
17566;SDS011;8901;52.088;5.084;2022-07-21T12:14:45;5.32;;;3.13;;
17566;SDS011;8901;52.088;5.084;2022-07-21T12:17:14;3.50;;;2.50;;
17566;SDS011;8901;52.088;5.084;2022-07-21T12:19:43;6.22;;;2.90;;
17566;SDS011;8901;52.088;5.084;2022-07-21T12:22:10;4.32;;;2.88;;
17566;SDS011;8901;52.088;5.084;2022-07-21T12:24:49;3.75;;;2.50;;
17566;SDS011;8901;52.088;5.084;2022-07-21T12:27:19;7.53;;;2.72;;
17566;SDS011;8901;52.088;5.084;2022-07-21T12:29:46;3.45;;;2.13;;
17566;SDS011;8901;52.088;5.084;2022-07-21T12:32:14;2.78;;;2.30;;
17566;SDS011;8901;52.088;5.084;2022-07-21T12:35:01;6.60;;;2.42;;
17566;SDS011;8901;52.088;5.084;2022-07-21T12:40:35;2.75;;;1.83;;
17566;SDS011;8901;52.088;5.084;2022-07-21T12:43:04;2.42;;;2.20;;
17566;SDS011;8901;52.088;5.084;2022-07-21T12:45:43;5.88;;;2.80;;
17566;SDS011;8901;52.088;5.084;2022-07-21T12:48:12;3.70;;;2.20;;
17566;SDS011;8901;52.088;5.084;2022-07-21T12:50:41;4.03;;;2.45;;
17566;SDS011;8901;52.088;5.084;2022-07-21T12:53:08;4.20;;;2.30;;
17566;SDS011;8901;52.088;5.084;2022-07-21T12:55:37;4.95;;;2.42;;
17566;SDS011;8901;52.088;5.084;2022-07-21T12:58:04;3.60;;;2.50;;
17566;SDS011;8901;52.088;5.084;2022-07-21T13:00:32;3.30;;;2.30;;
17566;SDS011;8901;52.088;5.084;2022-07-21T13:02:58;4.70;;;2.40;;
17566;SDS011;8901;52.088;5.084;2022-07-21T13:05:25;6.22;;;2.40;;
17566;SDS011;8901;52.088;5.084;2022-07-21T13:07:52;7.15;;;2.30;;
17566;SDS011;8901;52.088;5.084;2022-07-21T13:10:20;4.82;;;2.47;;
17566;SDS011;8901;52.088;5.084;2022-07-21T13:12:48;3.50;;;2.30;;
17566;SDS011;8901;52.088;5.084;2022-07-21T13:15:15;4.60;;;2.70;;
17566;SDS011;8901;52.088;5.084;2022-07-21T13:17:42;5.40;;;2.33;;
17566;SDS011;8901;52.088;5.084;2022-07-21T13:20:10;2.75;;;2.10;;
17566;SDS011;8901;52.088;5.084;2022-07-21T13:22:38;2.92;;;2.40;;
17566;SDS011;8901;52.088;5.084;2022-07-21T13:25:05;3.15;;;2.30;;
17566;SDS011;8901;52.088;5.084;2022-07-21T13:27:33;4.65;;;2.30;;
17566;SDS011;8901;52.088;5.084;2022-07-21T13:30:02;4.35;;;1.83;;
17566;SDS011;8901;52.088;5.084;2022-07-21T13:32:31;4.95;;;2.20;;
17566;SDS011;8901;52.088;5.084;2022-07-21T13:34:59;3.78;;;2.20;;
17566;SDS011;8901;52.088;5.084;2022-07-21T13:37:26;4.03;;;2.08;;
17566;SDS011;8901;52.088;5.084;2022-07-21T13:39:53;5.85;;;2.00;;
17566;SDS011;8901;52.088;5.084;2022-07-21T13:42:20;2.45;;;1.77;;
17566;SDS011;8901;52.088;5.084;2022-07-21T13:44:47;4.72;;;2.17;;
17566;SDS011;8901;52.088;5.084;2022-07-21T13:47:15;6.13;;;2.60;;
17566;SDS011;8901;52.088;5.084;2022-07-21T13:49:42;4.65;;;2.63;;
17566;SDS011;8901;52.088;5.084;2022-07-21T13:52:09;4.03;;;2.65;;
17566;SDS011;8901;52.088;5.084;2022-07-21T13:54:36;5.35;;;2.67;;
17566;SDS011;8901;52.088;5.084;2022-07-21T13:57:03;7.22;;;2.97;;
17566;SDS011;8901;52.088;5.084;2022-07-21T13:59:30;4.15;;;2.60;;
17566;SDS011;8901;52.088;5.084;2022-07-21T14:01:57;3.55;;;2.45;;
17566;SDS011;8901;52.088;5.084;2022-07-21T14:07:01;6.93;;;3.50;;
17566;SDS011;8901;52.088;5.084;2022-07-21T14:09:28;5.10;;;3.70;;
17566;SDS011;8901;52.088;5.084;2022-07-21T14:11:56;3.63;;;2.63;;
17566;SDS011;8901;52.088;5.084;2022-07-21T14:14:24;6.22;;;3.92;;
17566;SDS011;8901;52.088;5.084;2022-07-21T14:16:52;5.70;;;3.97;;
17566;SDS011;8901;52.088;5.084;2022-07-21T14:22:13;5.57;;;3.70;;
17566;SDS011;8901;52.088;5.084;2022-07-21T14:24:44;3.83;;;3.33;;
17566;SDS011;8901;52.088;5.084;2022-07-21T14:27:28;3.47;;;3.00;;
17566;SDS011;8901;52.088;5.084;2022-07-21T14:29:55;4.95;;;3.67;;
17566;SDS011;8901;52.088;5.084;2022-07-21T14:32:23;5.32;;;3.78;;
17566;SDS011;8901;52.088;5.084;2022-07-21T14:34:51;4.95;;;3.00;;
17566;SDS011;8901;52.088;5.084;2022-07-21T14:37:20;4.32;;;2.80;;
17566;SDS011;8901;52.088;5.084;2022-07-21T14:39:47;4.90;;;2.92;;
17566;SDS011;8901;52.088;5.084;2022-07-21T14:42:18;5.05;;;3.15;;
17566;SDS011;8901;52.088;5.084;2022-07-21T14:47:32;2.78;;;1.98;;
17566;SDS011;8901;52.088;5.084;2022-07-21T14:50:01;4.70;;;1.80;;
17566;SDS011;8901;52.088;5.084;2022-07-21T14:52:28;5.50;;;1.95;;
17566;SDS011;8901;52.088;5.084;2022-07-21T14:54:55;5.68;;;2.30;;
17566;SDS011;8901;52.088;5.084;2022-07-21T14:57:22;6.47;;;1.80;;
17566;SDS011;8901;52.088;5.084;2022-07-21T14:59:49;6.85;;;2.10;;
17566;SDS011;8901;52.088;5.084;2022-07-21T15:02:16;4.63;;;1.88;;
17566;SDS011;8901;52.088;5.084;2022-07-21T15:04:43;6.13;;;2.08;;
17566;SDS011;8901;52.088;5.084;2022-07-21T15:07:11;7.78;;;1.73;;
17566;SDS011;8901;52.088;5.084;2022-07-21T15:09:39;5.63;;;1.67;;
17566;SDS011;8901;52.088;5.084;2022-07-21T15:12:06;3.92;;;1.60;;
17566;SDS011;8901;52.088;5.084;2022-07-21T15:14:33;7.65;;;1.90;;
17566;SDS011;8901;52.088;5.084;2022-07-21T15:17:00;7.00;;;2.17;;
17566;SDS011;8901;52.088;5.084;2022-07-21T15:19:27;5.68;;;1.70;;
17566;SDS011;8901;52.088;5.084;2022-07-21T15:21:54;6.88;;;1.80;;
17566;SDS011;8901;52.088;5.084;2022-07-21T15:24:22;5.63;;;1.83;;
17566;SDS011;8901;52.088;5.084;2022-07-21T15:26:49;6.00;;;2.20;;